Time;durP1;ratioP1;P1;durP2;ratioP2;P2;SDS_P1;SDS_P2;PMS_P1;PMS_P2;Temp;Humidity;BMP_temperature;BMP_pressure;BME280_temperature;BME280_humidity;BME280_pressure;Samples;Min_cycle;Max_cycle;Signal;HPM_P1;HPM_P2
2022/04/10 00:02:15;;;;;;;0.65;0.40;;;;;;;;;;5092436;28;20020;-79
2022/04/10 00:04:42;;;;;;;2.08;0.52;;;;;;;;;;5092163;28;20045;-79
2022/04/10 00:07:11;;;;;;;0.00;0.00;;;;;;;;;;5092167;28;20015;-79
2022/04/10 00:09:37;;;;;;;0.52;0.52;;;;;;;;;;5063759;28;20032;-77
2022/04/10 00:12:04;;;;;;;0.10;0.10;;;;;;;;;;5078860;28;20024;-78
2022/04/10 00:14:30;;;;;;;0.00;0.00;;;;;;;;;;5086373;28;20461;-79
2022/04/10 00:16:57;;;;;;;1.35;1.00;;;;;;;;;;5079158;28;20043;-77
2022/04/10 00:19:25;;;;;;;1.17;0.38;;;;;;;;;;5087915;28;20042;-78
2022/04/10 00:21:51;;;;;;;0.00;0.00;;;;;;;;;;5082900;28;20043;-77
2022/04/10 00:24:18;;;;;;;0.00;0.00;;;;;;;;;;5082451;28;20502;-77
2022/04/10 00:26:45;;;;;;;3.85;1.40;;;;;;;;;;5074817;28;20093;-77
2022/04/10 00:29:11;;;;;;;1.95;1.77;;;;;;;;;;5079089;28;20426;-75
2022/04/10 00:31:37;;;;;;;1.00;0.35;;;;;;;;;;5079019;28;20067;-76
2022/04/10 00:34:04;;;;;;;0.20;0.20;;;;;;;;;;5091702;28;20089;-79
2022/04/10 00:36:30;;;;;;;2.22;0.57;;;;;;;;;;5082819;28;20036;-79
2022/04/10 00:38:58;;;;;;;1.90;0.25;;;;;;;;;;5066673;28;20103;-77
2022/04/10 00:41:24;;;;;;;1.00;0.52;;;;;;;;;;5070591;28;20036;-80
2022/04/10 00:44:04;;;;;;;1.45;1.00;;;;;;;;;;5056757;28;20020;-79
2022/04/10 00:46:33;;;;;;;0.70;0.50;;;;;;;;;;5085698;28;20020;-78
2022/04/10 00:49:00;;;;;;;2.60;2.35;;;;;;;;;;5081016;28;20035;-77
2022/04/10 00:51:40;;;;;;;0.98;0.93;;;;;;;;;;5082950;28;20066;-77
2022/04/10 00:54:16;;;;;;;12.05;1.10;;;;;;;;;;5083987;28;20062;-77
2022/04/10 00:56:43;;;;;;;3.75;0.98;;;;;;;;;;5081780;28;20482;-76
2022/04/10 00:59:10;;;;;;;1.55;0.77;;;;;;;;;;5084665;28;20028;-77
2022/04/10 01:01:37;;;;;;;1.70;1.38;;;;;;;;;;5082855;28;20040;-76
2022/04/10 01:04:04;;;;;;;2.42;0.70;;;;;;;;;;5063533;28;20463;-76
2022/04/10 01:06:32;;;;;;;1.05;0.90;;;;;;;;;;5080935;28;20033;-77
2022/04/10 01:08:59;;;;;;;1.23;0.73;;;;;;;;;;5071617;28;20024;-77
2022/04/10 01:11:25;;;;;;;3.00;2.03;;;;;;;;;;5085913;28;20081;-77
2022/04/10 01:13:53;;;;;;;2.88;1.50;;;;;;;;;;5086591;28;20041;-77
2022/04/10 01:16:21;;;;;;;0.22;0.20;;;;;;;;;;5079530;28;20474;-76
2022/04/10 01:18:48;;;;;;;2.53;1.85;;;;;;;;;;5090266;28;20032;-77
2022/04/10 01:21:17;;;;;;;2.10;0.70;;;;;;;;;;5060980;28;20061;-77
2022/04/10 01:23:45;;;;;;;3.58;2.78;;;;;;;;;;5074994;28;20024;-77
2022/04/10 01:26:11;;;;;;;0.57;0.43;;;;;;;;;;5083096;28;20035;-76
2022/04/10 01:28:38;;;;;;;0.45;0.38;;;;;;;;;;5080042;28;20020;-78
2022/04/10 01:31:04;;;;;;;3.30;0.50;;;;;;;;;;5066286;28;20024;-78
2022/04/10 01:33:30;;;;;;;1.00;0.70;;;;;;;;;;5074925;28;20044;-77
2022/04/10 01:35:57;;;;;;;12.95;1.50;;;;;;;;;;5063219;28;20055;-78
2022/04/10 01:38:23;;;;;;;1.42;0.95;;;;;;;;;;5060644;28;20032;-76
2022/04/10 01:40:50;;;;;;;3.03;1.23;;;;;;;;;;5065642;28;20024;-77
2022/04/10 01:43:16;;;;;;;8.68;0.95;;;;;;;;;;5059587;28;20021;-77
2022/04/10 01:45:43;;;;;;;1.75;0.68;;;;;;;;;;5062921;28;20068;-79
2022/04/10 01:48:10;;;;;;;4.60;1.48;;;;;;;;;;5045779;28;20025;-77
2022/04/10 01:50:37;;;;;;;0.22;0.20;;;;;;;;;;5059906;28;20387;-77
2022/04/10 01:53:05;;;;;;;5.53;1.33;;;;;;;;;;5064256;28;20036;-77
2022/04/10 01:55:31;;;;;;;0.75;0.57;;;;;;;;;;5065280;28;20103;-77
2022/04/10 01:57:57;;;;;;;2.03;1.13;;;;;;;;;;5062162;28;20027;-77
2022/04/10 02:00:24;;;;;;;4.05;1.23;;;;;;;;;;5060337;28;20082;-77
2022/04/10 02:02:50;;;;;;;4.88;2.15;;;;;;;;;;5039210;28;20443;-77
2022/04/10 02:05:16;;;;;;;2.38;0.93;;;;;;;;;;5060054;28;20074;-77
2022/04/10 02:07:43;;;;;;;4.18;1.70;;;;;;;;;;5054205;28;20029;-76
2022/04/10 02:10:09;;;;;;;2.10;1.17;;;;;;;;;;5053893;28;20023;-78
2022/04/10 02:12:36;;;;;;;0.65;0.45;;;;;;;;;;5054416;28;20072;-76
2022/04/10 02:15:02;;;;;;;2.45;1.00;;;;;;;;;;5057311;28;20073;-76
2022/04/10 02:17:31;;;;;;;2.35;1.50;;;;;;;;;;5063102;28;20025;-78
2022/04/10 02:19:57;;;;;;;0.40;0.20;;;;;;;;;;5051679;28;20036;-78
2022/04/10 02:22:24;;;;;;;2.03;0.80;;;;;;;;;;5053753;28;20017;-76
2022/04/10 02:24:54;;;;;;;2.22;0.75;;;;;;;;;;5035408;28;20027;-77
2022/04/10 02:27:20;;;;;;;0.73;0.32;;;;;;;;;;5065683;28;20178;-81
2022/04/10 02:29:46;;;;;;;2.20;1.02;;;;;;;;;;5046301;28;20032;-78
2022/04/10 02:32:13;;;;;;;0.40;0.22;;;;;;;;;;5045809;28;20031;-77
2022/04/10 02:34:39;;;;;;;3.40;1.85;;;;;;;;;;5075769;28;20080;-76
2022/04/10 02:37:06;;;;;;;2.65;1.38;;;;;;;;;;5089133;28;20241;-77
2022/04/10 02:39:32;;;;;;;1.30;1.27;;;;;;;;;;5102888;28;20430;-78
2022/04/10 02:41:58;;;;;;;0.20;0.00;;;;;;;;;;5080707;28;20051;-77
2022/04/10 02:44:24;;;;;;;3.53;1.52;;;;;;;;;;5067856;28;20120;-77
2022/04/10 02:46:51;;;;;;;5.10;1.13;;;;;;;;;;5080269;28;20061;-78
2022/04/10 02:49:17;;;;;;;4.13;1.60;;;;;;;;;;5081764;28;20067;-78
2022/04/10 02:51:46;;;;;;;2.05;1.42;;;;;;;;;;5060609;28;20079;-77
2022/04/10 02:54:12;;;;;;;0.75;0.25;;;;;;;;;;5080245;28;20012;-78
2022/04/10 02:56:39;;;;;;;7.05;2.17;;;;;;;;;;5081810;28;20379;-77
2022/04/10 02:59:05;;;;;;;1.13;0.55;;;;;;;;;;5080667;28;20162;-79
2022/04/10 03:01:31;;;;;;;1.00;0.47;;;;;;;;;;5081948;28;20072;-78
2022/04/10 03:03:58;;;;;;;5.07;1.58;;;;;;;;;;5081168;28;20479;-80
2022/04/10 03:06:24;;;;;;;2.95;2.00;;;;;;;;;;5075758;28;20028;-79
2022/04/10 03:08:50;;;;;;;0.55;0.20;;;;;;;;;;5073033;28;20032;-80
2022/04/10 03:11:18;;;;;;;3.80;1.52;;;;;;;;;;5073190;28;20096;-77
2022/04/10 03:13:45;;;;;;;1.92;0.88;;;;;;;;;;5059797;28;20056;-77
2022/04/10 03:16:11;;;;;;;1.75;0.47;;;;;;;;;;5097386;28;20547;-78
2022/04/10 03:18:38;;;;;;;0.30;0.15;;;;;;;;;;5092095;28;20344;-79
2022/04/10 03:21:05;;;;;;;1.92;0.57;;;;;;;;;;5087373;28;20100;-79
2022/04/10 03:23:31;;;;;;;8.45;3.55;;;;;;;;;;5086969;28;20040;-78
2022/04/10 03:25:57;;;;;;;2.60;1.08;;;;;;;;;;5096659;28;20036;-77
2022/04/10 03:28:24;;;;;;;3.38;1.30;;;;;;;;;;5093106;28;20035;-79
2022/04/10 03:30:50;;;;;;;2.83;1.35;;;;;;;;;;5073493;28;20613;-77
2022/04/10 03:33:16;;;;;;;7.07;0.75;;;;;;;;;;5067652;28;20118;-77
2022/04/10 03:35:43;;;;;;;2.63;0.85;;;;;;;;;;5068335;28;20086;-77
2022/04/10 03:38:09;;;;;;;1.00;0.75;;;;;;;;;;5106792;28;20024;-77
2022/04/10 03:40:36;;;;;;;1.08;0.70;;;;;;;;;;5115608;28;20059;-78
2022/04/10 03:43:02;;;;;;;0.30;0.22;;;;;;;;;;5114533;28;20428;-78
2022/04/10 03:45:28;;;;;;;2.45;0.50;;;;;;;;;;5120605;28;20023;-77
2022/04/10 03:47:55;;;;;;;20.02;1.60;;;;;;;;;;5090275;28;20024;-77
2022/04/10 03:50:21;;;;;;;2.67;0.70;;;;;;;;;;5090533;28;20084;-79
2022/04/10 03:52:48;;;;;;;1.67;1.23;;;;;;;;;;5093680;28;20055;-77
2022/04/10 03:55:14;;;;;;;0.00;0.00;;;;;;;;;;5103547;28;20146;-78
2022/04/10 03:57:41;;;;;;;7.32;0.63;;;;;;;;;;5100875;28;20893;-76
2022/04/10 04:00:10;;;;;;;1.20;0.85;;;;;;;;;;5111488;28;20020;-78
2022/04/10 04:02:40;;;;;;;1.20;0.50;;;;;;;;;;5104292;28;20047;-79
2022/04/10 04:05:08;;;;;;;0.65;0.65;;;;;;;;;;5102202;28;20039;-78
2022/04/10 04:07:34;;;;;;;0.00;0.00;;;;;;;;;;5105291;28;20020;-79
2022/04/10 04:10:00;;;;;;;6.35;1.33;;;;;;;;;;5084322;28;20052;-78
2022/04/10 04:12:27;;;;;;;0.00;0.00;;;;;;;;;;5103825;28;20023;-78
2022/04/10 04:14:53;;;;;;;0.75;0.57;;;;;;;;;;5098943;28;20022;-78
2022/04/10 04:17:20;;;;;;;0.00;0.00;;;;;;;;;;5105194;28;20031;-78
2022/04/10 04:19:49;;;;;;;5.38;1.30;;;;;;;;;;5103030;28;20057;-79
2022/04/10 04:22:16;;;;;;;0.00;0.00;;;;;;;;;;5109249;28;20076;-78
2022/04/10 04:24:43;;;;;;;0.00;0.00;;;;;;;;;;5082414;28;20111;-77
2022/04/10 04:27:09;;;;;;;2.38;1.67;;;;;;;;;;5108770;28;20027;-78
2022/04/10 04:29:35;;;;;;;0.13;0.13;;;;;;;;;;5100665;28;20035;-78
2022/04/10 04:32:02;;;;;;;0.40;0.35;;;;;;;;;;5102484;28;20032;-78
2022/04/10 04:34:31;;;;;;;1.23;1.13;;;;;;;;;;5097796;28;20490;-77
2022/04/10 04:36:58;;;;;;;1.45;1.00;;;;;;;;;;5109533;28;20032;-78
2022/04/10 04:39:24;;;;;;;0.55;0.47;;;;;;;;;;5098697;28;20095;-79
2022/04/10 04:41:50;;;;;;;0.73;0.15;;;;;;;;;;5100655;28;20037;-76
2022/04/10 04:44:19;;;;;;;0.75;0.68;;;;;;;;;;5097828;28;20027;-76
2022/04/10 04:46:46;;;;;;;1.58;1.48;;;;;;;;;;5099359;28;20028;-82
2022/04/10 04:49:12;;;;;;;0.20;0.20;;;;;;;;;;5103100;28;20023;-77
2022/04/10 04:51:39;;;;;;;3.47;1.40;;;;;;;;;;5083099;28;20162;-80
2022/04/10 04:54:08;;;;;;;2.10;1.13;;;;;;;;;;5101323;28;20024;-80
2022/04/10 04:56:35;;;;;;;5.25;1.80;;;;;;;;;;5098614;28;20071;-78
2022/04/10 04:59:01;;;;;;;1.95;0.63;;;;;;;;;;5079094;28;20352;-78
2022/04/10 05:01:28;;;;;;;2.38;0.70;;;;;;;;;;5098045;28;20479;-78
2022/04/10 05:03:54;;;;;;;3.85;1.92;;;;;;;;;;5094888;28;20375;-80
2022/04/10 05:06:22;;;;;;;4.57;1.48;;;;;;;;;;5101333;28;20121;-76
2022/04/10 05:08:48;;;;;;;0.17;0.17;;;;;;;;;;5106297;28;20027;-80
2022/04/10 05:11:15;;;;;;;25.48;3.13;;;;;;;;;;5103869;28;20012;-80
2022/04/10 05:13:41;;;;;;;0.47;0.30;;;;;;;;;;5103218;28;20024;-79
2022/04/10 05:16:08;;;;;;;0.00;0.00;;;;;;;;;;5098946;28;20031;-78
2022/04/10 05:18:34;;;;;;;5.63;1.20;;;;;;;;;;5108274;28;20008;-77
2022/04/10 05:21:01;;;;;;;4.28;2.60;;;;;;;;;;5119826;28;20020;-77
2022/04/10 05:23:28;;;;;;;1.23;0.57;;;;;;;;;;5105893;28;20098;-77
2022/04/10 05:25:54;;;;;;;2.35;2.25;;;;;;;;;;5102642;28;20023;-78
2022/04/10 05:28:22;;;;;;;0.32;0.32;;;;;;;;;;5106464;28;20450;-78
2022/04/10 05:30:49;;;;;;;0.00;0.00;;;;;;;;;;5091422;28;20027;-79
2022/04/10 05:33:16;;;;;;;7.78;2.92;;;;;;;;;;5102067;28;20046;-78
2022/04/10 05:35:42;;;;;;;4.82;0.90;;;;;;;;;;5106511;28;20060;-78
2022/04/10 05:38:09;;;;;;;4.25;2.03;;;;;;;;;;5107552;28;20416;-78
2022/04/10 05:40:35;;;;;;;4.28;1.73;;;;;;;;;;5091677;28;20066;-78
2022/04/10 05:43:01;;;;;;;1.60;1.02;;;;;;;;;;5101674;28;20016;-79
2022/04/10 05:45:28;;;;;;;2.90;1.52;;;;;;;;;;5105008;28;20047;-78
2022/04/10 05:47:54;;;;;;;0.98;0.30;;;;;;;;;;5104491;28;20024;-78
2022/04/10 05:50:20;;;;;;;0.75;0.45;;;;;;;;;;5083247;28;20410;-77
2022/04/10 05:52:51;;;;;;;0.00;0.00;;;;;;;;;;5102941;28;20046;-78
2022/04/10 05:55:17;;;;;;;0.00;0.00;;;;;;;;;;5102565;28;20110;-77
2022/04/10 05:57:44;;;;;;;0.20;0.20;;;;;;;;;;5101950;28;20068;-78
2022/04/10 06:00:12;;;;;;;15.82;2.70;;;;;;;;;;5107988;28;20028;-78
2022/04/10 06:02:39;;;;;;;0.43;0.43;;;;;;;;;;5082455;28;20024;-78
2022/04/10 06:05:05;;;;;;;0.00;0.00;;;;;;;;;;5095808;28;20031;-78
2022/04/10 06:07:32;;;;;;;0.00;0.00;;;;;;;;;;5100786;28;20043;-78
2022/04/10 06:09:59;;;;;;;15.88;2.10;;;;;;;;;;5084649;28;20555;-78
2022/04/10 06:12:25;;;;;;;2.10;2.00;;;;;;;;;;5098876;28;20028;-78
2022/04/10 06:14:52;;;;;;;0.00;0.00;;;;;;;;;;5094968;28;20028;-77
2022/04/10 06:17:18;;;;;;;1.40;1.13;;;;;;;;;;5099498;28;20028;-77
2022/04/10 06:19:45;;;;;;;0.00;0.00;;;;;;;;;;5101222;28;20013;-78
2022/04/10 06:22:14;;;;;;;1.48;1.23;;;;;;;;;;5105097;28;20034;-78
2022/04/10 06:24:41;;;;;;;0.00;0.00;;;;;;;;;;5096553;28;20032;-78
2022/04/10 06:27:07;;;;;;;0.00;0.00;;;;;;;;;;5083036;28;20044;-77
2022/04/10 06:29:34;;;;;;;0.10;0.10;;;;;;;;;;5095009;28;20355;-78
2022/04/10 06:32:00;;;;;;;1.85;1.75;;;;;;;;;;5106233;28;20381;-78
2022/04/10 06:34:26;;;;;;;1.40;1.23;;;;;;;;;;5075318;28;20040;-78
2022/04/10 06:36:53;;;;;;;0.43;0.20;;;;;;;;;;5079769;28;20075;-78
2022/04/10 06:39:19;;;;;;;0.00;0.00;;;;;;;;;;5083842;28;20032;-77
2022/04/10 06:41:45;;;;;;;0.00;0.00;;;;;;;;;;5076475;28;20052;-80
2022/04/10 06:44:12;;;;;;;0.00;0.00;;;;;;;;;;5088190;28;20490;-79
2022/04/10 06:46:38;;;;;;;0.20;0.20;;;;;;;;;;5064066;28;20036;-78
2022/04/10 06:49:04;;;;;;;0.00;0.00;;;;;;;;;;5069062;28;20070;-78
2022/04/10 06:51:31;;;;;;;1.13;0.15;;;;;;;;;;5083106;28;20039;-81
2022/04/10 06:53:57;;;;;;;0.00;0.00;;;;;;;;;;5087161;28;20029;-79
2022/04/10 06:56:23;;;;;;;1.02;1.02;;;;;;;;;;5084048;28;20032;-79
2022/04/10 06:58:50;;;;;;;1.00;0.82;;;;;;;;;;5080087;28;20096;-80
2022/04/10 07:01:16;;;;;;;0.00;0.00;;;;;;;;;;5077834;28;20616;-80
2022/04/10 07:03:42;;;;;;;1.35;0.47;;;;;;;;;;5081513;28;20028;-80
2022/04/10 07:06:10;;;;;;;0.32;0.32;;;;;;;;;;5087134;28;20032;-78
2022/04/10 07:08:39;;;;;;;0.03;0.03;;;;;;;;;;5070664;28;20390;-80
2022/04/10 07:11:08;;;;;;;0.00;0.00;;;;;;;;;;5068861;28;20017;-80
2022/04/10 07:13:34;;;;;;;0.00;0.00;;;;;;;;;;5081690;28;20033;-80
2022/04/10 07:16:01;;;;;;;0.00;0.00;;;;;;;;;;5085279;28;20090;-79
2022/04/10 07:18:27;;;;;;;0.65;0.20;;;;;;;;;;5083579;28;20074;-80
2022/04/10 07:20:53;;;;;;;0.00;0.00;;;;;;;;;;5084671;28;20037;-80
2022/04/10 07:23:45;;;;;;;11.15;2.67;;;;;;;;;;5085553;28;20470;-80
2022/04/10 07:26:13;;;;;;;1.45;0.80;;;;;;;;;;5085210;28;20028;-81
2022/04/10 07:28:39;;;;;;;0.00;0.00;;;;;;;;;;5087492;28;20032;-80
2022/04/10 07:31:06;;;;;;;0.35;0.10;;;;;;;;;;5071166;28;20114;-80
2022/04/10 07:33:33;;;;;;;3.40;1.88;;;;;;;;;;5087975;28;20178;-82
2022/04/10 07:35:59;;;;;;;2.38;2.08;;;;;;;;;;5076427;28;20039;-80
2022/04/10 07:38:26;;;;;;;1.92;1.90;;;;;;;;;;5086373;28;20028;-80
2022/04/10 07:40:52;;;;;;;0.00;0.00;;;;;;;;;;5064717;28;20024;-80
2022/04/10 07:43:18;;;;;;;0.00;0.00;;;;;;;;;;5085196;28;20035;-80
2022/04/10 07:48:30;;;;;;;0.45;0.43;;;;;;;;;;5081104;28;20051;-81
2022/04/10 07:50:57;;;;;;;3.63;1.88;;;;;;;;;;5080449;28;20031;-81
2022/04/10 07:53:24;;;;;;;0.40;0.40;;;;;;;;;;5065594;28;20024;-80
2022/04/10 07:55:50;;;;;;;0.00;0.00;;;;;;;;;;5064210;28;20039;-79
2022/04/10 07:58:17;;;;;;;0.00;0.00;;;;;;;;;;5085393;28;20020;-79
2022/04/10 08:00:43;;;;;;;0.22;0.22;;;;;;;;;;5099798;28;20069;-79
2022/04/10 08:03:09;;;;;;;0.00;0.00;;;;;;;;;;5071758;28;20024;-79
2022/04/10 08:05:36;;;;;;;3.13;0.75;;;;;;;;;;5101012;28;20042;-80
2022/04/10 08:08:02;;;;;;;1.17;0.80;;;;;;;;;;5095010;28;20085;-79
2022/04/10 08:10:29;;;;;;;6.00;2.00;;;;;;;;;;5093062;28;20024;-79
2022/04/10 08:12:55;;;;;;;0.85;0.85;;;;;;;;;;5086554;28;20085;-80
2022/04/10 08:15:22;;;;;;;7.22;1.65;;;;;;;;;;5087013;28;20016;-81
2022/04/10 08:17:48;;;;;;;1.75;0.47;;;;;;;;;;5087258;28;20115;-81
2022/04/10 08:20:16;;;;;;;0.00;0.00;;;;;;;;;;5080663;28;20502;-79
2022/04/10 08:22:42;;;;;;;0.20;0.20;;;;;;;;;;5063661;28;20028;-82
2022/04/10 08:25:10;;;;;;;4.85;0.77;;;;;;;;;;5064590;28;20028;-80
2022/04/10 08:27:37;;;;;;;5.93;0.63;;;;;;;;;;5082936;28;20019;-79
2022/04/10 08:30:12;;;;;;;0.32;0.32;;;;;;;;;;5088749;28;20115;-79
2022/04/10 08:32:39;;;;;;;0.00;0.00;;;;;;;;;;5067603;28;20023;-79
2022/04/10 08:35:06;;;;;;;0.38;0.38;;;;;;;;;;5079305;28;20368;-79
2022/04/10 08:37:32;;;;;;;3.25;1.27;;;;;;;;;;5065686;28;20040;-78
2022/04/10 08:39:59;;;;;;;0.00;0.00;;;;;;;;;;5083327;28;20150;-79
2022/04/10 08:42:25;;;;;;;5.13;2.20;;;;;;;;;;5089181;28;20031;-80
2022/04/10 08:44:52;;;;;;;0.93;0.93;;;;;;;;;;5078756;28;20120;-79
2022/04/10 08:47:20;;;;;;;0.30;0.30;;;;;;;;;;5060265;28;20024;-81
2022/04/10 08:49:47;;;;;;;2.08;0.98;;;;;;;;;;5062354;28;20624;-81
2022/04/10 08:52:16;;;;;;;0.90;0.45;;;;;;;;;;5086256;28;20038;-80
2022/04/10 08:54:44;;;;;;;0.98;0.98;;;;;;;;;;5074490;28;20028;-82
2022/04/10 08:57:10;;;;;;;2.58;2.47;;;;;;;;;;5065153;28;20394;-81
2022/04/10 08:59:37;;;;;;;0.90;0.88;;;;;;;;;;5081052;28;20112;-79
2022/04/10 09:02:04;;;;;;;2.83;1.85;;;;;;;;;;5082250;28;20485;-80
2022/04/10 09:04:31;;;;;;;24.20;10.55;;;;;;;;;;5092764;28;20047;-79
2022/04/10 09:07:24;;;;;;;0.00;0.00;;;;;;;;;;5080155;28;20040;-79
2022/04/10 09:09:56;;;;;;;7.90;6.88;;;;;;;;;;5061201;28;20064;-78
2022/04/10 09:12:22;;;;;;;0.10;0.10;;;;;;;;;;5085964;28;20054;-78
2022/04/10 09:14:50;;;;;;;0.00;0.00;;;;;;;;;;5073562;28;20031;-79
2022/04/10 09:17:23;;;;;;;4.07;1.58;;;;;;;;;;5064192;28;20044;-79
2022/04/10 09:19:51;;;;;;;0.10;0.10;;;;;;;;;;5076133;28;20063;-80
2022/04/10 09:22:20;;;;;;;4.38;1.30;;;;;;;;;;5078161;28;20432;-79
2022/04/10 09:25:03;;;;;;;0.73;0.38;;;;;;;;;;5060958;28;20539;-79
2022/04/10 09:27:33;;;;;;;0.13;0.13;;;;;;;;;;5081270;28;20035;-80
2022/04/10 09:30:00;;;;;;;2.88;2.67;;;;;;;;;;5071858;28;20020;-79
2022/04/10 09:32:39;;;;;;;10.63;5.00;;;;;;;;;;5063923;28;20028;-80
2022/04/10 09:35:06;;;;;;;1.65;1.55;;;;;;;;;;5078854;28;20035;-82
2022/04/10 09:37:42;;;;;;;1.95;1.17;;;;;;;;;;5079934;28;20441;-80
2022/04/10 09:40:22;;;;;;;15.40;3.92;;;;;;;;;;5062705;28;20471;-80
2022/04/10 09:42:57;;;;;;;7.68;5.40;;;;;;;;;;5078196;28;20039;-80
2022/04/10 09:45:40;;;;;;;0.00;0.00;;;;;;;;;;5065040;28;20108;-80
2022/04/10 09:48:22;;;;;;;15.63;1.85;;;;;;;;;;5076243;28;20509;-80
2022/04/10 09:50:52;;;;;;;0.17;0.17;;;;;;;;;;5057978;28;20111;-79
2022/04/10 09:53:18;;;;;;;0.88;0.88;;;;;;;;;;5076818;28;20036;-80
2022/04/10 09:55:45;;;;;;;0.20;0.20;;;;;;;;;;5084791;28;20030;-80
2022/04/10 09:58:18;;;;;;;1.05;1.00;;;;;;;;;;5079079;28;20491;-80
2022/04/10 10:00:45;;;;;;;0.00;0.00;;;;;;;;;;5081733;28;20016;-80
2022/04/10 10:03:12;;;;;;;0.00;0.00;;;;;;;;;;5066699;28;20101;-80
2022/04/10 10:05:38;;;;;;;0.00;0.00;;;;;;;;;;5087043;28;20024;-80
2022/04/10 10:08:08;;;;;;;13.38;3.03;;;;;;;;;;5068591;28;20146;-80
2022/04/10 10:10:38;;;;;;;0.00;0.00;;;;;;;;;;5067183;28;20072;-80
2022/04/10 10:13:08;;;;;;;0.75;0.75;;;;;;;;;;5064607;28;20392;-80
2022/04/10 10:15:35;;;;;;;2.28;0.63;;;;;;;;;;5082637;28;20082;-80
2022/04/10 10:18:03;;;;;;;0.38;0.38;;;;;;;;;;5067036;28;20058;-80
2022/04/10 10:20:30;;;;;;;0.00;0.00;;;;;;;;;;5087399;28;20555;-79
2022/04/10 10:22:57;;;;;;;0.70;0.70;;;;;;;;;;5063367;28;20032;-80
2022/04/10 10:25:27;;;;;;;4.38;1.05;;;;;;;;;;5085744;28;20066;-79
2022/04/10 10:28:05;;;;;;;7.57;6.93;;;;;;;;;;5082374;28;20025;-79
2022/04/10 10:30:37;;;;;;;0.15;0.05;;;;;;;;;;5065469;28;20368;-79
2022/04/10 10:33:16;;;;;;;0.38;0.38;;;;;;;;;;5064354;28;20518;-80
2022/04/10 10:35:45;;;;;;;1.10;1.05;;;;;;;;;;5062075;28;20036;-78
2022/04/10 10:38:24;;;;;;;1.65;1.55;;;;;;;;;;5079074;28;20048;-80
2022/04/10 10:40:51;;;;;;;0.00;0.00;;;;;;;;;;5064388;28;20041;-81
2022/04/10 10:43:23;;;;;;;0.35;0.20;;;;;;;;;;5089109;28;20460;-80
2022/04/10 10:45:50;;;;;;;9.52;0.65;;;;;;;;;;5061682;28;20037;-80
2022/04/10 10:48:31;;;;;;;0.00;0.00;;;;;;;;;;5080816;28;20075;-79
2022/04/10 10:51:24;;;;;;;0.00;0.00;;;;;;;;;;5099209;28;20055;-79
2022/04/10 10:53:57;;;;;;;0.00;0.00;;;;;;;;;;5054832;28;20036;-80
2022/04/10 10:56:30;;;;;;;4.38;1.48;;;;;;;;;;5077777;28;20471;-79
2022/04/10 10:59:16;;;;;;;19.23;17.98;;;;;;;;;;5059558;28;20043;-80
2022/04/10 11:01:55;;;;;;;0.00;0.00;;;;;;;;;;5071157;28;20031;-80
2022/04/10 11:04:22;;;;;;;2.28;2.08;;;;;;;;;;5074311;28;20046;-80
2022/04/10 11:06:48;;;;;;;0.00;0.00;;;;;;;;;;5080086;28;20024;-80
2022/04/10 11:09:21;;;;;;;3.00;0.35;;;;;;;;;;5065872;28;20035;-80
2022/04/10 11:11:48;;;;;;;0.98;0.82;;;;;;;;;;5068365;28;20351;-79
2022/04/10 11:14:33;;;;;;;3.78;0.63;;;;;;;;;;5077542;28;20070;-79
2022/04/10 11:17:18;;;;;;;0.52;0.30;;;;;;;;;;5055694;28;20533;-79
2022/04/10 11:19:45;;;;;;;0.00;0.00;;;;;;;;;;5086859;28;20033;-80
2022/04/10 11:22:19;;;;;;;7.22;1.88;;;;;;;;;;5069578;28;20378;-79
2022/04/10 11:24:46;;;;;;;0.00;0.00;;;;;;;;;;5069624;28;20020;-79
2022/04/10 11:27:13;;;;;;;0.00;0.00;;;;;;;;;;5083393;28;20024;-80
2022/04/10 11:29:50;;;;;;;0.00;0.00;;;;;;;;;;5060150;28;20025;-81
2022/04/10 11:32:20;;;;;;;4.28;0.60;;;;;;;;;;5078279;28;20052;-81
2022/04/10 11:34:58;;;;;;;4.55;0.70;;;;;;;;;;5083083;28;20040;-81
2022/04/10 11:37:24;;;;;;;0.00;0.00;;;;;;;;;;5077549;28;20390;-80
2022/04/10 11:39:56;;;;;;;2.08;1.88;;;;;;;;;;5067441;28;20032;-80
2022/04/10 11:42:22;;;;;;;0.00;0.00;;;;;;;;;;5071141;28;20025;-82
2022/04/10 11:44:49;;;;;;;0.00;0.00;;;;;;;;;;5085203;28;20028;-81
2022/04/10 11:47:16;;;;;;;0.00;0.00;;;;;;;;;;5086403;28;20027;-81
2022/04/10 11:49:50;;;;;;;10.18;3.03;;;;;;;;;;5083033;28;20052;-80
2022/04/10 11:52:20;;;;;;;0.47;0.47;;;;;;;;;;5080526;28;20028;-81
2022/04/10 11:54:50;;;;;;;0.00;0.00;;;;;;;;;;5068172;28;20036;-81
2022/04/10 11:57:17;;;;;;;0.03;0.03;;;;;;;;;;5081120;28;20036;-81
2022/04/10 11:59:43;;;;;;;0.00;0.00;;;;;;;;;;5083696;28;20016;-81
2022/04/10 12:02:14;;;;;;;0.00;0.00;;;;;;;;;;5081891;28;20047;-80
2022/04/10 12:04:41;;;;;;;0.00;0.00;;;;;;;;;;5066655;28;20070;-79
2022/04/10 12:07:18;;;;;;;0.52;0.52;;;;;;;;;;5079690;28;20415;-79
2022/04/10 12:09:45;;;;;;;5.68;5.15;;;;;;;;;;5070720;28;20905;-81
2022/04/10 12:12:12;;;;;;;0.00;0.00;;;;;;;;;;5093975;28;20027;-81
2022/04/10 12:14:41;;;;;;;0.00;0.00;;;;;;;;;;5087756;28;20035;-81
2022/04/10 12:17:11;;;;;;;0.57;0.57;;;;;;;;;;5084505;28;20118;-79
2022/04/10 12:19:38;;;;;;;0.00;0.00;;;;;;;;;;5085753;28;20017;-80
2022/04/10 12:22:05;;;;;;;0.00;0.00;;;;;;;;;;5065407;28;20025;-80
2022/04/10 12:24:32;;;;;;;0.00;0.00;;;;;;;;;;5082594;28;20097;-80
2022/04/10 12:26:59;;;;;;;0.95;0.93;;;;;;;;;;5079815;28;20028;-80
2022/04/10 12:29:28;;;;;;;0.00;0.00;;;;;;;;;;5082836;28;20456;-80
2022/04/10 12:31:55;;;;;;;0.00;0.00;;;;;;;;;;5080744;28;20024;-81
2022/04/10 12:34:23;;;;;;;6.15;4.28;;;;;;;;;;5064568;28;20045;-80
2022/04/10 12:36:53;;;;;;;0.00;0.00;;;;;;;;;;5074643;28;20035;-79
2022/04/10 12:39:26;;;;;;;0.73;0.73;;;;;;;;;;5103432;28;20052;-79
2022/04/10 12:42:00;;;;;;;16.88;15.98;;;;;;;;;;5102851;28;20023;-79
2022/04/10 12:44:26;;;;;;;0.10;0.10;;;;;;;;;;5108307;28;20020;-79
2022/04/10 12:46:53;;;;;;;2.65;2.55;;;;;;;;;;5103197;28;20110;-80
2022/04/10 12:49:20;;;;;;;0.25;0.15;;;;;;;;;;5085071;28;20032;-81
2022/04/10 12:51:49;;;;;;;0.00;0.00;;;;;;;;;;5098470;28;20020;-80
2022/04/10 12:54:16;;;;;;;0.00;0.00;;;;;;;;;;5095649;28;20034;-79
2022/04/10 12:56:45;;;;;;;8.57;1.00;;;;;;;;;;5100552;28;20745;-78
2022/04/10 12:59:12;;;;;;;0.00;0.00;;;;;;;;;;5100828;28;20560;-80
2022/04/10 13:01:38;;;;;;;0.00;0.00;;;;;;;;;;5079495;28;20028;-78
2022/04/10 13:04:05;;;;;;;0.20;0.20;;;;;;;;;;5104148;28;20023;-79
2022/04/10 13:06:51;;;;;;;0.00;0.00;;;;;;;;;;5102847;28;20020;-80
2022/04/10 13:09:18;;;;;;;0.43;0.43;;;;;;;;;;5101492;28;20024;-80
2022/04/10 13:11:45;;;;;;;14.60;10.43;;;;;;;;;;5081988;28;20027;-79
2022/04/10 13:14:13;;;;;;;0.00;0.00;;;;;;;;;;5083990;28;20028;-79
2022/04/10 13:16:40;;;;;;;0.00;0.00;;;;;;;;;;5103031;28;20531;-80
2022/04/10 13:19:07;;;;;;;0.00;0.00;;;;;;;;;;5106685;28;20046;-79
2022/04/10 13:21:34;;;;;;;11.90;3.30;;;;;;;;;;5079891;28;20098;-80
2022/04/10 13:24:01;;;;;;;0.00;0.00;;;;;;;;;;5095960;28;20016;-79
2022/04/10 13:26:28;;;;;;;0.00;0.00;;;;;;;;;;5084665;28;20027;-80
2022/04/10 13:28:55;;;;;;;0.00;0.00;;;;;;;;;;5100431;28;20028;-79
2022/04/10 13:31:21;;;;;;;0.00;0.00;;;;;;;;;;5102565;28;20513;-80
2022/04/10 13:33:48;;;;;;;1.40;1.35;;;;;;;;;;5108591;28;20047;-80
2022/04/10 13:36:15;;;;;;;0.00;0.00;;;;;;;;;;5083172;28;20027;-80
2022/04/10 13:38:41;;;;;;;0.30;0.30;;;;;;;;;;5080663;28;20063;-80
2022/04/10 13:41:07;;;;;;;0.00;0.00;;;;;;;;;;5102085;28;20007;-80
2022/04/10 13:43:34;;;;;;;29.23;4.07;;;;;;;;;;5114285;28;20043;-79
2022/04/10 13:46:01;;;;;;;1.50;1.40;;;;;;;;;;5090324;28;20463;-80
2022/04/10 13:48:27;;;;;;;6.70;4.65;;;;;;;;;;5104994;28;20036;-81
2022/04/10 13:50:53;;;;;;;0.00;0.00;;;;;;;;;;5103086;28;20031;-78
2022/04/10 13:53:20;;;;;;;0.05;0.05;;;;;;;;;;5104315;28;20024;-81
2022/04/10 13:55:46;;;;;;;0.00;0.00;;;;;;;;;;5105260;28;20080;-80
2022/04/10 13:58:12;;;;;;;0.00;0.00;;;;;;;;;;5080065;28;20438;-80
2022/04/10 14:00:42;;;;;;;0.00;0.00;;;;;;;;;;5112808;28;20382;-80
2022/04/10 14:03:08;;;;;;;0.00;0.00;;;;;;;;;;5081543;28;20747;-80
2022/04/10 14:05:35;;;;;;;3.20;3.10;;;;;;;;;;5101197;28;20095;-80
2022/04/10 14:08:01;;;;;;;0.00;0.00;;;;;;;;;;5103965;28;20540;-80
2022/04/10 14:10:28;;;;;;;0.00;0.00;;;;;;;;;;5109393;28;20475;-80
2022/04/10 14:12:54;;;;;;;0.22;0.22;;;;;;;;;;5100756;28;20023;-80
2022/04/10 14:15:21;;;;;;;0.00;0.00;;;;;;;;;;5099120;28;20016;-80
2022/04/10 14:17:48;;;;;;;0.00;0.00;;;;;;;;;;5082137;28;20019;-79
2022/04/10 14:20:14;;;;;;;1.02;1.02;;;;;;;;;;5090225;28;20500;-80
2022/04/10 14:22:41;;;;;;;2.00;1.90;;;;;;;;;;5084732;28;20035;-79
2022/04/10 14:25:07;;;;;;;1.75;1.65;;;;;;;;;;5102308;28;20013;-78
2022/04/10 14:27:34;;;;;;;0.05;0.05;;;;;;;;;;5098715;28;20085;-79
2022/04/10 14:30:00;;;;;;;0.28;0.28;;;;;;;;;;5102541;28;20030;-80
2022/04/10 14:32:27;;;;;;;0.10;0.10;;;;;;;;;;5100224;28;20051;-80
2022/04/10 14:34:53;;;;;;;0.10;0.10;;;;;;;;;;5106429;28;20067;-80
2022/04/10 14:37:19;;;;;;;0.00;0.00;;;;;;;;;;5097807;28;20080;-80
2022/04/10 14:39:46;;;;;;;0.47;0.47;;;;;;;;;;5096658;28;20039;-80
2022/04/10 14:42:12;;;;;;;0.00;0.00;;;;;;;;;;5095778;28;21626;-80
2022/04/10 14:44:39;;;;;;;1.13;1.13;;;;;;;;;;5083186;28;20073;-80
2022/04/10 14:47:06;;;;;;;0.60;0.60;;;;;;;;;;5096975;28;20028;-80
2022/04/10 14:49:32;;;;;;;0.00;0.00;;;;;;;;;;5105103;28;20157;-80
2022/04/10 14:51:58;;;;;;;0.00;0.00;;;;;;;;;;5087458;28;20110;-81